createdAt,value
2019-01-24T00:01:09.044Z,58.19
2019-01-24T00:03:35.386Z,58.29
2019-01-24T00:06:01.670Z,58.04
2019-01-24T00:08:27.989Z,58.23
2019-01-24T00:10:54.410Z,58.07
2019-01-24T00:13:20.763Z,58.54
2019-01-24T00:15:47.380Z,58.23
2019-01-24T00:18:13.777Z,58.00
2019-01-24T00:20:40.415Z,58.53
2019-01-24T00:23:06.704Z,58.37
2019-01-24T00:25:33.295Z,57.81
2019-01-24T00:27:59.848Z,57.81
2019-01-24T00:30:26.219Z,58.55
2019-01-24T00:32:52.780Z,58.72
2019-01-24T00:35:19.091Z,59.38
2019-01-24T00:37:45.698Z,60.28
2019-01-24T00:40:20.449Z,60.23
2019-01-24T00:42:46.997Z,60.21
2019-01-24T00:45:15.020Z,60.55
2019-01-24T00:47:41.654Z,60.77
2019-01-24T00:50:13.522Z,60.78
2019-01-24T00:52:39.954Z,60.58
2019-01-24T00:55:10.111Z,60.50
2019-01-24T00:57:36.443Z,60.77
2019-01-24T01:00:13.874Z,60.98
2019-01-24T01:02:40.196Z,61.09
2019-01-24T01:05:09.223Z,61.26
2019-01-24T01:07:35.832Z,61.30
2019-01-24T01:10:05.465Z,61.36
2019-01-24T01:12:31.936Z,61.21
2019-01-24T01:14:59.555Z,60.97
2019-01-24T01:17:26.142Z,61.06
2019-01-24T01:19:52.490Z,61.05
2019-01-24T01:22:18.828Z,60.98
2019-01-24T01:24:45.151Z,60.70
2019-01-24T01:27:11.730Z,60.97
2019-01-24T01:29:38.030Z,60.85
2019-01-24T01:32:04.674Z,60.51
2019-01-24T01:34:36.178Z,60.48
2019-01-24T01:36:59.478Z,60.90
2019-01-24T01:39:25.886Z,60.97
2019-01-24T01:41:52.585Z,60.80
2019-01-24T01:44:19.660Z,60.82
2019-01-24T01:46:46.271Z,61.09
2019-01-24T01:49:12.838Z,61.24
2019-01-24T01:51:39.171Z,61.40
2019-01-24T01:54:05.817Z,61.22
2019-01-24T01:56:32.407Z,60.98
2019-01-24T01:58:59.503Z,60.89
2019-01-24T02:01:25.851Z,60.81
2019-01-24T02:03:52.428Z,60.63
2019-01-24T02:06:19.007Z,60.26
2019-01-24T02:08:45.372Z,60.42
2019-01-24T02:11:11.696Z,60.55
2019-01-24T02:13:38.305Z,60.47
2019-01-24T02:16:04.626Z,60.69
2019-01-24T02:18:31.413Z,60.44
2019-01-24T02:20:57.738Z,60.56
2019-01-24T02:23:24.049Z,60.69
2019-01-24T02:25:50.374Z,60.47
2019-01-24T02:28:16.688Z,60.42
2019-01-24T02:30:43.308Z,60.74
2019-01-24T02:33:09.663Z,60.77
2019-01-24T02:35:35.967Z,61.05
2019-01-24T02:38:02.281Z,61.67
2019-01-24T02:40:28.973Z,61.60
2019-01-24T02:42:55.298Z,61.70
2019-01-24T02:45:23.395Z,61.97
2019-01-24T02:47:50.126Z,61.95
2019-01-24T02:50:19.171Z,61.88
2019-01-24T02:52:45.795Z,61.55
2019-01-24T02:55:14.545Z,61.64
2019-01-24T02:57:41.248Z,61.32
2019-01-24T03:00:20.113Z,61.61
2019-01-24T03:02:46.911Z,61.58
2019-01-24T03:05:17.109Z,61.24
2019-01-24T03:07:43.430Z,61.37
2019-01-24T03:10:12.607Z,61.50
2019-01-24T03:12:39.217Z,61.78
2019-01-24T03:15:10.854Z,62.48
2019-01-24T03:17:38.130Z,63.56
2019-01-24T03:20:08.257Z,63.70
2019-01-24T03:22:34.607Z,64.31
2019-01-24T03:25:00.972Z,64.79
2019-01-24T03:27:27.648Z,63.79
2019-01-24T03:29:54.253Z,63.10
2019-01-24T03:32:21.845Z,63.05
2019-01-24T03:34:48.167Z,62.48
2019-01-24T03:37:14.766Z,62.27
2019-01-24T03:39:41.105Z,62.12
2019-01-24T03:42:07.771Z,61.87
2019-01-24T03:44:34.395Z,62.10
2019-01-24T03:47:00.733Z,61.70
2019-01-24T03:49:27.123Z,61.60
2019-01-24T03:51:53.784Z,60.99
2019-01-24T03:54:20.130Z,60.80
2019-01-24T03:56:47.294Z,60.79
2019-01-24T03:59:13.626Z,60.14
2019-01-24T04:01:40.313Z,60.59
2019-01-24T04:04:06.896Z,60.19
2019-01-24T04:06:33.246Z,60.20
2019-01-24T04:08:59.581Z,60.09
2019-01-24T04:11:26.149Z,60.36
2019-01-24T04:13:52.989Z,60.48
2019-01-24T04:16:19.279Z,60.76
2019-01-24T04:18:45.920Z,60.22
2019-01-24T04:21:12.626Z,59.90
2019-01-24T04:23:38.990Z,59.88
2019-01-24T04:26:05.288Z,59.90
2019-01-24T04:28:32.750Z,59.79
2019-01-24T04:30:59.176Z,59.61
2019-01-24T04:33:25.789Z,60.41
2019-01-24T04:35:52.157Z,60.22
2019-01-24T04:38:18.477Z,59.95
2019-01-24T04:40:44.838Z,59.37
2019-01-24T04:43:11.146Z,59.15
2019-01-24T04:45:37.540Z,58.74
2019-01-24T04:48:04.220Z,59.12
2019-01-24T04:50:30.650Z,59.40
2019-01-24T04:52:56.967Z,59.48
2019-01-24T04:55:23.298Z,58.91
2019-01-24T04:57:49.648Z,58.93
2019-01-24T05:00:19.967Z,59.72
2019-01-24T05:02:46.651Z,59.72
2019-01-24T05:05:13.211Z,59.72
2019-01-24T05:07:39.809Z,59.72
2019-01-24T05:10:07.911Z,59.40
2019-01-24T05:12:34.520Z,59.40
2019-01-24T05:15:00.817Z,59.33
2019-01-24T05:17:27.149Z,59.08
2019-01-24T05:19:53.465Z,59.51
2019-01-24T05:22:20.086Z,59.06
2019-01-24T05:24:46.418Z,59.03
2019-01-24T05:27:12.999Z,58.75
2019-01-24T05:29:39.613Z,58.82
2019-01-24T05:32:05.937Z,58.76
2019-01-24T05:34:32.564Z,58.68
2019-01-24T05:36:58.902Z,58.75
2019-01-24T05:39:25.504Z,59.63
2019-01-24T05:41:52.052Z,59.97
2019-01-24T05:44:20.317Z,59.70
2019-01-24T05:46:46.664Z,59.87
2019-01-24T05:49:13.254Z,59.95
2019-01-24T05:51:39.599Z,60.21
2019-01-24T05:54:06.393Z,59.98
2019-01-24T05:56:32.721Z,59.86
2019-01-24T05:58:59.054Z,60.06
2019-01-24T06:01:26.069Z,59.93
2019-01-24T06:03:52.407Z,59.85
2019-01-24T06:06:19.002Z,59.23
2019-01-24T06:08:45.358Z,59.11
2019-01-24T06:11:11.966Z,59.14
2019-01-24T06:13:38.282Z,59.37
2019-01-24T06:16:04.651Z,58.85
2019-01-24T06:18:30.969Z,59.07
2019-01-24T06:20:57.294Z,58.67
2019-01-24T06:23:23.639Z,58.75
2019-01-24T06:25:50.255Z,58.90
2019-01-24T06:28:16.572Z,59.29
2019-01-24T06:30:43.151Z,59.38
2019-01-24T06:33:09.486Z,59.14
2019-01-24T06:35:35.815Z,59.36
2019-01-24T06:38:02.488Z,59.28
2019-01-24T06:40:29.087Z,59.00
2019-01-24T06:42:55.396Z,58.29
2019-01-24T06:45:23.233Z,58.42
2019-01-24T06:47:49.961Z,58.94
2019-01-24T06:50:18.369Z,59.02
2019-01-24T06:52:45.545Z,59.61
2019-01-24T06:55:22.689Z,59.68
2019-01-24T06:57:49.248Z,60.12
2019-01-24T07:00:18.320Z,59.37
2019-01-24T07:02:44.737Z,59.16
2019-01-24T07:05:11.992Z,59.46
2019-01-24T07:07:39.309Z,59.96
2019-01-24T07:10:19.702Z,59.59
2019-01-24T07:12:46.093Z,59.51
2019-01-24T07:15:16.702Z,59.26
2019-01-24T07:17:43.241Z,58.62
2019-01-24T07:20:13.511Z,58.55
2019-01-24T07:22:40.520Z,58.03
2019-01-24T07:25:12.171Z,58.44
2019-01-24T07:27:38.510Z,58.70
2019-01-24T07:30:10.057Z,58.58
2019-01-24T07:32:36.739Z,59.08
2019-01-24T07:35:13.573Z,58.88
2019-01-24T07:37:39.872Z,59.11
2019-01-24T07:40:12.977Z,57.59
2019-01-24T07:42:39.568Z,56.64
2019-01-24T07:45:14.383Z,57.04
2019-01-24T07:47:41.023Z,57.17
2019-01-24T07:50:11.178Z,56.34
2019-01-24T07:52:38.506Z,55.54
2019-01-24T07:55:09.023Z,55.21
2019-01-24T07:57:35.742Z,55.96
2019-01-24T08:00:07.659Z,57.88
2019-01-24T08:02:34.775Z,58.00
2019-01-24T08:05:01.135Z,58.68
2019-01-24T08:07:27.787Z,58.03
2019-01-24T08:09:54.093Z,57.88
2019-01-24T08:12:20.676Z,58.33
2019-01-24T08:14:47.243Z,59.63
2019-01-24T08:17:13.835Z,59.24
2019-01-24T08:19:40.189Z,58.85
2019-01-24T08:22:10.446Z,58.20
2019-01-24T08:24:36.778Z,57.90
2019-01-24T08:27:04.172Z,57.80
2019-01-24T08:29:30.784Z,57.75
2019-01-24T08:31:57.374Z,58.06
2019-01-24T08:34:23.941Z,57.61
2019-01-24T08:36:50.279Z,56.76
2019-01-24T08:39:16.862Z,56.12
2019-01-24T08:41:43.441Z,56.26
2019-01-24T08:44:09.778Z,55.81
2019-01-24T08:46:36.122Z,55.52
2019-01-24T08:49:02.769Z,54.83
2019-01-24T08:51:29.609Z,54.47
2019-01-24T08:53:55.979Z,54.38
2019-01-24T08:56:23.321Z,54.98
2019-01-24T08:58:49.627Z,54.66
2019-01-24T09:01:15.956Z,54.40
2019-01-24T09:03:43.114Z,54.37
2019-01-24T09:06:09.828Z,53.90
2019-01-24T09:08:36.404Z,54.02
2019-01-24T09:11:03.188Z,53.82
2019-01-24T09:13:29.506Z,53.76
2019-01-24T09:15:56.059Z,54.03
2019-01-24T09:18:22.667Z,53.72
2019-01-24T09:20:49.241Z,53.34
2019-01-24T09:23:15.842Z,53.98
2019-01-24T09:25:42.196Z,52.28
2019-01-24T09:28:14.839Z,51.70
2019-01-24T09:30:36.935Z,51.48
2019-01-24T09:33:03.341Z,50.31
2019-01-24T09:35:29.651Z,49.82
2019-01-24T09:37:55.964Z,50.09
2019-01-24T09:40:22.805Z,49.70
2019-01-24T09:42:50.173Z,49.95
2019-01-24T09:45:27.089Z,50.52
2019-01-24T09:47:56.615Z,50.44
2019-01-24T09:50:25.437Z,50.35
2019-01-24T09:52:52.084Z,50.16
2019-01-24T09:55:18.868Z,50.61
2019-01-24T09:57:45.224Z,50.37
2019-01-24T10:00:24.166Z,49.64
2019-01-24T10:02:50.899Z,49.10
2019-01-24T10:05:18.099Z,49.41
2019-01-24T10:07:44.518Z,49.42
2019-01-24T10:10:14.450Z,48.53
2019-01-24T10:12:41.029Z,48.79
2019-01-24T10:15:10.470Z,49.10
2019-01-24T10:17:37.058Z,49.14
2019-01-24T10:20:12.136Z,48.77
2019-01-24T10:22:38.698Z,48.97
2019-01-24T10:25:12.819Z,47.21
2019-01-24T10:27:39.427Z,47.98
2019-01-24T10:30:16.406Z,47.92
2019-01-24T10:32:43.066Z,47.57
2019-01-24T10:35:09.989Z,47.17
2019-01-24T10:37:36.952Z,47.02
2019-01-24T10:40:12.075Z,47.64
2019-01-24T10:42:38.485Z,47.17
2019-01-24T10:45:10.189Z,47.04
2019-01-24T10:47:37.745Z,46.15
2019-01-24T10:50:09.319Z,46.93
2019-01-24T10:52:35.925Z,47.05
2019-01-24T10:55:05.510Z,46.88
2019-01-24T10:57:31.849Z,47.17
2019-01-24T10:59:58.180Z,46.63
2019-01-24T11:02:39.189Z,46.07
2019-01-24T11:05:09.512Z,45.86
2019-01-24T11:07:35.842Z,46.14
2019-01-24T11:10:06.013Z,46.10
2019-01-24T11:12:32.319Z,45.79
2019-01-24T11:14:58.664Z,45.53
2019-01-24T11:17:24.965Z,46.11
2019-01-24T11:19:51.636Z,46.32
2019-01-24T11:22:17.979Z,46.72
2019-01-24T11:24:44.336Z,45.65
2019-01-24T11:27:10.922Z,45.38
2019-01-24T11:29:39.424Z,45.30
2019-01-24T11:32:05.893Z,44.38
2019-01-24T11:34:32.438Z,44.82
2019-01-24T11:36:58.806Z,43.87
2019-01-24T11:39:25.406Z,44.64
2019-01-24T11:41:51.855Z,43.88
2019-01-24T11:44:18.482Z,44.20
2019-01-24T11:46:44.829Z,44.71
2019-01-24T11:49:11.188Z,44.77
2019-01-24T11:51:37.555Z,43.78
2019-01-24T11:54:04.214Z,42.86
2019-01-24T11:56:30.801Z,42.84
2019-01-24T11:58:57.162Z,42.65
2019-01-24T12:01:25.387Z,42.88
2019-01-24T12:03:51.699Z,41.84
2019-01-24T12:06:18.288Z,42.65
2019-01-24T12:08:44.874Z,42.30
2019-01-24T12:11:11.162Z,42.75
2019-01-24T12:13:37.514Z,43.29
2019-01-24T12:16:04.616Z,42.64
2019-01-24T12:18:30.940Z,44.04
2019-01-24T12:20:57.523Z,44.01
2019-01-24T12:23:23.841Z,44.19
2019-01-24T12:25:50.169Z,44.06
2019-01-24T12:28:16.761Z,44.07
2019-01-24T12:30:43.159Z,44.07
2019-01-24T12:33:09.486Z,43.73
2019-01-24T12:35:35.856Z,43.75
2019-01-24T12:38:02.443Z,44.57
2019-01-24T12:40:29.072Z,44.96
2019-01-24T12:42:55.445Z,45.33
2019-01-24T12:45:32.295Z,45.31
2019-01-24T12:47:58.706Z,45.48
2019-01-24T12:50:26.149Z,46.29
2019-01-24T12:52:52.882Z,46.77
2019-01-24T12:55:19.309Z,46.96
2019-01-24T12:57:45.948Z,46.99
2019-01-24T13:00:28.024Z,47.18
2019-01-24T13:02:54.604Z,48.12
2019-01-24T13:05:21.054Z,46.90
2019-01-24T13:07:47.369Z,46.91
2019-01-24T13:10:20.032Z,48.23
2019-01-24T13:12:47.178Z,47.66
2019-01-24T13:15:17.743Z,47.17
2019-01-24T13:17:44.080Z,47.95
2019-01-24T13:20:13.607Z,47.95
2019-01-24T13:22:40.415Z,47.33
2019-01-24T13:25:11.795Z,46.87
2019-01-24T13:27:38.103Z,47.01
2019-01-24T13:30:17.200Z,47.28
2019-01-24T13:32:44.835Z,47.32
2019-01-24T13:35:11.184Z,47.14
2019-01-24T13:37:37.651Z,47.10
2019-01-24T13:40:11.890Z,46.26
2019-01-24T13:42:38.452Z,46.30
2019-01-24T13:45:10.098Z,46.19
2019-01-24T13:47:36.450Z,46.38
2019-01-24T13:50:13.475Z,47.27
2019-01-24T13:52:40.057Z,47.32
2019-01-24T13:55:06.566Z,47.56
2019-01-24T13:57:32.994Z,47.51
2019-01-24T14:00:00.634Z,47.27
2019-01-24T14:02:27.247Z,48.48
2019-01-24T14:04:53.602Z,48.65
2019-01-24T14:07:19.895Z,48.86
2019-01-24T14:09:46.531Z,48.71
2019-01-24T14:12:13.163Z,48.64
2019-01-24T14:14:39.546Z,48.42
2019-01-24T14:17:06.035Z,47.78
2019-01-24T14:19:32.389Z,47.13
2019-01-24T14:21:59.791Z,47.44
2019-01-24T14:24:26.132Z,47.77
2019-01-24T14:26:52.567Z,47.92
2019-01-24T14:29:19.174Z,47.39
2019-01-24T14:31:45.530Z,47.55
2019-01-24T14:34:11.821Z,48.33
2019-01-24T14:36:38.447Z,48.61
2019-01-24T14:39:07.249Z,48.49
2019-01-24T14:41:34.141Z,48.85
2019-01-24T14:44:00.467Z,49.29
2019-01-24T14:46:27.075Z,49.17
2019-01-24T14:48:53.713Z,49.47
2019-01-24T14:51:20.323Z,48.81
2019-01-24T14:53:46.895Z,49.19
2019-01-24T14:56:13.253Z,49.04
2019-01-24T14:58:39.740Z,49.78
2019-01-24T15:01:06.605Z,49.33
2019-01-24T15:03:33.022Z,49.47
2019-01-24T15:05:59.373Z,49.42
2019-01-24T15:08:25.964Z,49.78
2019-01-24T15:10:52.591Z,49.68
2019-01-24T15:13:19.261Z,49.82
2019-01-24T15:15:45.821Z,50.66
2019-01-24T15:18:14.293Z,50.58
2019-01-24T15:20:40.612Z,51.13
2019-01-24T15:23:06.960Z,50.88
2019-01-24T15:25:33.361Z,50.74
2019-01-24T15:27:59.706Z,50.74
2019-01-24T15:30:28.047Z,50.86
2019-01-24T15:32:54.455Z,50.56
2019-01-24T15:35:20.920Z,50.97
2019-01-24T15:37:54.099Z,51.58
2019-01-24T15:40:32.594Z,52.25
2019-01-24T15:42:58.925Z,52.09
2019-01-24T15:45:25.421Z,51.96
2019-01-24T15:47:51.863Z,52.67
2019-01-24T15:50:20.688Z,52.19
2019-01-24T15:52:47.549Z,52.04
2019-01-24T15:55:14.269Z,52.45
2019-01-24T15:57:40.587Z,52.46
2019-01-24T16:00:20.335Z,53.03
2019-01-24T16:02:46.765Z,52.69
2019-01-24T16:05:13.302Z,53.14
2019-01-24T16:07:39.911Z,53.25
2019-01-24T16:10:13.240Z,53.49
2019-01-24T16:12:39.845Z,52.82
2019-01-24T16:15:13.997Z,52.66
2019-01-24T16:17:40.362Z,52.34
2019-01-24T16:20:12.304Z,52.88
2019-01-24T16:22:38.903Z,52.42
2019-01-24T16:25:10.097Z,52.34
2019-01-24T16:27:36.418Z,52.06
2019-01-24T16:30:11.277Z,52.12
2019-01-24T16:32:37.893Z,52.02
2019-01-24T16:35:09.290Z,52.34
2019-01-24T16:37:35.855Z,52.50
2019-01-24T16:40:06.469Z,52.07
2019-01-24T16:42:33.222Z,52.52
2019-01-24T16:44:59.806Z,52.66
2019-01-24T16:47:26.321Z,52.37
2019-01-24T16:49:52.647Z,52.80
2019-01-24T16:52:19.764Z,52.62
2019-01-24T16:54:46.336Z,51.97
2019-01-24T16:57:12.691Z,51.96
2019-01-24T16:59:39.129Z,51.70
2019-01-24T17:02:05.504Z,51.90
2019-01-24T17:04:32.119Z,52.18
2019-01-24T17:06:59.384Z,51.24
2019-01-24T17:09:26.151Z,51.22
2019-01-24T17:11:52.490Z,51.94
2019-01-24T17:14:22.411Z,52.07
2019-01-24T17:16:47.338Z,51.76
2019-01-24T17:19:13.730Z,51.91
2019-01-24T17:21:40.101Z,52.43
2019-01-24T17:24:06.525Z,52.27
2019-01-24T17:26:33.173Z,51.85
2019-01-24T17:28:59.573Z,52.11
2019-01-24T17:31:28.278Z,52.15
2019-01-24T17:33:55.002Z,52.26
2019-01-24T17:36:21.331Z,52.34
2019-01-24T17:38:47.824Z,52.64
2019-01-24T17:41:14.436Z,52.94
2019-01-24T17:43:40.765Z,52.61
2019-01-24T17:46:07.575Z,52.80
2019-01-24T17:48:33.940Z,52.60
2019-01-24T17:51:00.271Z,52.50
2019-01-24T17:53:27.010Z,52.58
2019-01-24T17:55:53.440Z,52.63
2019-01-24T17:58:20.064Z,52.62
2019-01-24T18:00:48.675Z,52.90
2019-01-24T18:03:15.348Z,52.86
2019-01-24T18:05:41.734Z,52.91
2019-01-24T18:08:08.014Z,53.04
2019-01-24T18:10:34.365Z,53.24
2019-01-24T18:13:00.958Z,53.70
2019-01-24T18:15:33.378Z,53.01
2019-01-24T18:18:00.558Z,53.21
2019-01-24T18:20:30.462Z,53.22
2019-01-24T18:22:57.154Z,53.01
2019-01-24T18:25:23.725Z,52.71
2019-01-24T18:27:50.535Z,52.70
2019-01-24T18:30:27.245Z,52.60
2019-01-24T18:32:54.295Z,52.85
2019-01-24T18:35:22.359Z,52.53
2019-01-24T18:37:49.166Z,52.82
2019-01-24T18:40:24.472Z,53.08
2019-01-24T18:42:51.861Z,53.10
2019-01-24T18:45:31.589Z,52.84
2019-01-24T18:47:57.891Z,52.16
2019-01-24T18:50:24.759Z,52.14
2019-01-24T18:52:51.437Z,52.41
2019-01-24T18:55:17.794Z,52.58
2019-01-24T18:57:45.169Z,53.21
2019-01-24T19:00:17.209Z,52.64
2019-01-24T19:02:43.843Z,52.62
2019-01-24T19:05:11.768Z,52.65
2019-01-24T19:07:38.462Z,52.89
2019-01-24T19:10:10.651Z,52.66
2019-01-24T19:12:38.062Z,52.86
2019-01-24T19:15:19.332Z,52.48
2019-01-24T19:17:46.883Z,52.60
2019-01-24T19:20:15.225Z,52.79
2019-01-24T19:22:41.798Z,53.46
2019-01-24T19:25:17.967Z,53.28
2019-01-24T19:27:44.748Z,53.76
2019-01-24T19:30:24.099Z,54.12
2019-01-24T19:32:51.329Z,54.01
2019-01-24T19:35:18.105Z,53.75
2019-01-24T19:37:45.529Z,53.82
2019-01-24T19:40:22.234Z,53.53
2019-01-24T19:42:48.669Z,53.89
2019-01-24T19:45:21.480Z,54.05
2019-01-24T19:47:48.155Z,53.72
2019-01-24T19:50:17.952Z,53.56
2019-01-24T19:52:44.687Z,53.11
2019-01-24T19:55:11.731Z,53.44
2019-01-24T19:57:39.354Z,53.99
2019-01-24T20:00:28.212Z,54.01
2019-01-24T20:02:55.077Z,53.49
2019-01-24T20:05:22.054Z,53.76
2019-01-24T20:07:48.835Z,53.42
2019-01-24T20:10:20.884Z,53.42
2019-01-24T20:12:47.374Z,53.34
2019-01-24T20:15:17.437Z,53.55
2019-01-24T20:17:44.137Z,53.61
2019-01-24T20:20:13.335Z,53.44
2019-01-24T20:22:40.145Z,53.65
2019-01-24T20:25:16.794Z,53.74
2019-01-24T20:27:43.223Z,53.88
2019-01-24T20:30:16.657Z,53.79
2019-01-24T20:32:43.241Z,53.74
2019-01-24T20:35:14.822Z,54.02
2019-01-24T20:37:41.480Z,54.06
2019-01-24T20:40:11.914Z,54.17
2019-01-24T20:42:39.551Z,54.08
2019-01-24T20:45:09.714Z,54.43
2019-01-24T20:47:36.163Z,54.74
2019-01-24T20:50:07.648Z,54.42
2019-01-24T20:52:33.993Z,54.54
2019-01-24T20:55:00.340Z,54.78
2019-01-24T20:57:26.990Z,54.40
2019-01-24T20:59:53.628Z,54.73
2019-01-24T21:02:20.000Z,54.71
2019-01-24T21:04:46.378Z,54.77
2019-01-24T21:07:12.947Z,54.67
2019-01-24T21:09:39.251Z,55.19
2019-01-24T21:12:05.603Z,55.04
2019-01-24T21:14:32.196Z,55.04
2019-01-24T21:16:58.531Z,55.05
2019-01-24T21:19:25.130Z,54.88
2019-01-24T21:21:51.517Z,54.95
2019-01-24T21:24:18.140Z,54.99
2019-01-24T21:26:44.453Z,55.29
2019-01-24T21:29:11.051Z,55.19
2019-01-24T21:31:37.423Z,54.78
2019-01-24T21:34:03.817Z,54.78
2019-01-24T21:36:30.136Z,54.84
2019-01-24T21:38:56.459Z,54.79
2019-01-24T21:41:23.073Z,54.74
2019-01-24T21:43:49.372Z,55.15
2019-01-24T21:46:15.940Z,54.87
2019-01-24T21:48:42.517Z,54.89
2019-01-24T21:51:11.343Z,55.50
2019-01-24T21:53:38.422Z,56.21
2019-01-24T21:56:04.730Z,56.84
2019-01-24T21:58:31.392Z,56.99
2019-01-24T22:00:58.132Z,57.00
2019-01-24T22:03:24.499Z,56.87
2019-01-24T22:05:50.803Z,56.80
2019-01-24T22:08:17.156Z,56.48
2019-01-24T22:10:43.759Z,56.17
2019-01-24T22:13:10.380Z,56.27
2019-01-24T22:15:36.773Z,56.62
2019-01-24T22:18:03.720Z,56.40
2019-01-24T22:20:30.084Z,56.40
2019-01-24T22:22:56.388Z,56.37
2019-01-24T22:25:31.951Z,56.31
2019-01-24T22:27:58.827Z,56.82
2019-01-24T22:30:34.799Z,56.67
2019-01-24T22:33:01.416Z,56.45
2019-01-24T22:35:28.103Z,58.30
2019-01-24T22:37:55.729Z,57.82
2019-01-24T22:40:22.062Z,58.18
2019-01-24T22:42:48.745Z,59.21
2019-01-24T22:45:21.423Z,58.57
2019-01-24T22:47:48.225Z,58.22
2019-01-24T22:50:14.966Z,58.54
2019-01-24T22:52:42.714Z,58.51
2019-01-24T22:55:11.598Z,58.07
2019-01-24T22:57:38.160Z,58.25
2019-01-24T23:00:18.679Z,58.14
2019-01-24T23:02:47.137Z,57.61
2019-01-24T23:05:14.549Z,57.80
2019-01-24T23:07:40.867Z,57.47
2019-01-24T23:10:09.277Z,57.93
2019-01-24T23:12:36.027Z,58.08
2019-01-24T23:15:08.009Z,57.90
2019-01-24T23:17:34.426Z,58.19
2019-01-24T23:20:01.113Z,58.22
2019-01-24T23:22:27.438Z,58.30
2019-01-24T23:24:53.793Z,58.24
2019-01-24T23:27:20.337Z,58.10
2019-01-24T23:29:46.651Z,58.71
2019-01-24T23:32:13.102Z,59.11
2019-01-24T23:34:39.638Z,58.95
2019-01-24T23:37:05.970Z,60.05
2019-01-24T23:39:32.283Z,60.70
2019-01-24T23:41:58.891Z,60.34
2019-01-24T23:44:25.194Z,60.72
2019-01-24T23:46:51.629Z,60.06
2019-01-24T23:49:17.958Z,60.18
2019-01-24T23:51:44.331Z,59.74
2019-01-24T23:54:10.684Z,59.64
2019-01-24T23:56:37.015Z,60.67
2019-01-24T23:59:03.341Z,60.74
